sensor_id;sensor_type;location;lat;lon;timestamp;pressure;altitude;pressure_sealevel;temperature;humidity
74230;BME280;62589;12.568;99.958;2022-10-16T00:01:27;100884.75;;;31.50;48.13
74230;BME280;62589;12.568;99.958;2022-10-16T00:03:55;100888.31;;;31.50;48.07
74230;BME280;62589;12.568;99.958;2022-10-16T00:06:22;100895.09;;;31.53;48.01
74230;BME280;62589;12.568;99.958;2022-10-16T00:08:50;100898.69;;;31.53;48.25
74230;BME280;62589;12.568;99.958;2022-10-16T00:11:19;100899.47;;;31.54;48.69
74230;BME280;62589;12.568;99.958;2022-10-16T00:13:47;100913.72;;;31.52;48.16
74230;BME280;62589;12.568;99.958;2022-10-16T00:16:14;100917.31;;;31.53;47.91
74230;BME280;62589;12.568;99.958;2022-10-16T00:18:41;100916.94;;;31.54;48.09
74230;BME280;62589;12.568;99.958;2022-10-16T00:21:11;100929.22;;;31.53;47.95
74230;BME280;62589;12.568;99.958;2022-10-16T00:23:38;100932.41;;;31.55;48.20
74230;BME280;62589;12.568;99.958;2022-10-16T00:26:07;100931.97;;;31.53;48.13
74230;BME280;62589;12.568;99.958;2022-10-16T00:28:34;100939.56;;;31.56;47.81
74230;BME280;62589;12.568;99.958;2022-10-16T00:31:07;100937.97;;;31.55;47.98
74230;BME280;62589;12.568;99.958;2022-10-16T00:33:35;100939.19;;;31.58;47.63
74230;BME280;62589;12.568;99.958;2022-10-16T00:36:03;100941.53;;;31.56;48.14
74230;BME280;62589;12.568;99.958;2022-10-16T00:38:30;100945.91;;;31.57;48.38
74230;BME280;62589;12.568;99.958;2022-10-16T00:40:56;100956.66;;;31.58;48.03
74230;BME280;62589;12.568;99.958;2022-10-16T00:43:51;100958.22;;;31.59;49.03
74230;BME280;62589;12.568;99.958;2022-10-16T00:49:16;100968.56;;;31.62;48.09
74230;BME280;62589;12.568;99.958;2022-10-16T00:51:46;100978.06;;;31.61;48.38
74230;BME280;62589;12.568;99.958;2022-10-16T00:54:31;100982.53;;;31.66;48.58
74230;BME280;62589;12.568;99.958;2022-10-16T00:57:03;100980.84;;;31.61;48.48
74230;BME280;62589;12.568;99.958;2022-10-16T00:59:34;100986.84;;;31.63;48.58
74230;BME280;62589;12.568;99.958;2022-10-16T01:02:03;100990.03;;;31.65;48.72
74230;BME280;62589;12.568;99.958;2022-10-16T01:04:40;100991.28;;;31.68;48.33
74230;BME280;62589;12.568;99.958;2022-10-16T01:10:26;101001.28;;;31.72;48.73
74230;BME280;62589;12.568;99.958;2022-10-16T01:13:21;101008.88;;;31.75;47.77
74230;BME280;62589;12.568;99.958;2022-10-16T01:16:07;101009.66;;;31.76;48.50
74230;BME280;62589;12.568;99.958;2022-10-16T01:18:49;101019.59;;;31.77;47.85
74230;BME280;62589;12.568;99.958;2022-10-16T01:21:26;101014.03;;;31.77;49.15
74230;BME280;62589;12.568;99.958;2022-10-16T01:27:20;101013.28;;;31.80;48.16
74230;BME280;62589;12.568;99.958;2022-10-16T01:30:13;101029.19;;;31.83;47.99
74230;BME280;62589;12.568;99.958;2022-10-16T01:32:55;101027.16;;;31.80;48.38
74230;BME280;62589;12.568;99.958;2022-10-16T01:35:36;101026.41;;;31.83;48.19
74230;BME280;62589;12.568;99.958;2022-10-16T01:46:31;101043.06;;;31.83;46.19
74230;BME280;62589;12.568;99.958;2022-10-16T01:49:01;101049.00;;;31.82;46.42
74230;BME280;62589;12.568;99.958;2022-10-16T01:51:29;101054.53;;;31.78;45.89
74230;BME280;62589;12.568;99.958;2022-10-16T01:53:58;101055.31;;;31.79;45.42
74230;BME280;62589;12.568;99.958;2022-10-16T01:56:28;101058.09;;;31.79;45.76
74230;BME280;62589;12.568;99.958;2022-10-16T01:59:20;101052.94;;;31.81;46.25
74230;BME280;62589;12.568;99.958;2022-10-16T02:01:50;101063.22;;;31.76;45.93
74230;BME280;62589;12.568;99.958;2022-10-16T02:04:34;101062.84;;;31.78;45.89
74230;BME280;62589;12.568;99.958;2022-10-16T02:07:03;101069.16;;;31.75;45.33
74230;BME280;62589;12.568;99.958;2022-10-16T02:09:32;101065.56;;;31.74;45.64
74230;BME280;62589;12.568;99.958;2022-10-16T02:12:02;101072.34;;;31.77;46.16
74230;BME280;62589;12.568;99.958;2022-10-16T02:14:31;101080.31;;;31.79;45.77
74230;BME280;62589;12.568;99.958;2022-10-16T02:16:58;101087.03;;;31.77;46.38
74230;BME280;62589;12.568;99.958;2022-10-16T02:19:25;101082.69;;;31.80;46.30
74230;BME280;62589;12.568;99.958;2022-10-16T02:21:58;101077.94;;;31.81;45.64
74230;BME280;62589;12.568;99.958;2022-10-16T02:24:39;101089.47;;;31.83;45.42
74230;BME280;62589;12.568;99.958;2022-10-16T02:27:23;101088.72;;;31.86;45.89
74230;BME280;62589;12.568;99.958;2022-10-16T02:29:58;101087.13;;;31.85;45.87
74230;BME280;62589;12.568;99.958;2022-10-16T02:32:30;101087.19;;;31.88;45.89
74230;BME280;62589;12.568;99.958;2022-10-16T02:34:59;101095.94;;;31.90;46.22
74230;BME280;62589;12.568;99.958;2022-10-16T02:37:27;101089.66;;;31.93;46.75
74230;BME280;62589;12.568;99.958;2022-10-16T02:39:56;101098.03;;;31.97;47.12
74230;BME280;62589;12.568;99.958;2022-10-16T02:42:29;101093.72;;;31.99;46.45
74230;BME280;62589;12.568;99.958;2022-10-16T02:44:59;101098.13;;;32.04;45.97
74230;BME280;62589;12.568;99.958;2022-10-16T02:47:25;101088.19;;;32.03;45.50
74230;BME280;62589;12.568;99.958;2022-10-16T02:49:52;101093.06;;;32.09;45.31
74230;BME280;62589;12.568;99.958;2022-10-16T02:52:19;101096.94;;;32.05;45.61
74230;BME280;62589;12.568;99.958;2022-10-16T02:54:46;101091.13;;;32.14;45.48
74230;BME280;62589;12.568;99.958;2022-10-16T02:57:12;101082.03;;;32.17;45.59
74230;BME280;62589;12.568;99.958;2022-10-16T02:59:39;101091.66;;;32.23;45.57
74230;BME280;62589;12.568;99.958;2022-10-16T03:02:06;101088.19;;;32.29;45.83
74230;BME280;62589;12.568;99.958;2022-10-16T03:04:33;101087.88;;;32.34;46.22
74230;BME280;62589;12.568;99.958;2022-10-16T03:06:59;101087.53;;;32.39;46.11
74230;BME280;62589;12.568;99.958;2022-10-16T03:09:26;101091.16;;;32.43;46.70
74230;BME280;62589;12.568;99.958;2022-10-16T03:11:53;101085.25;;;32.49;45.71
74230;BME280;62589;12.568;99.958;2022-10-16T03:14:20;101085.25;;;32.49;44.75
74230;BME280;62589;12.568;99.958;2022-10-16T03:16:46;101082.91;;;32.51;44.57
74230;BME280;62589;12.568;99.958;2022-10-16T03:19:13;101088.47;;;32.51;44.36
74230;BME280;62589;12.568;99.958;2022-10-16T03:21:40;101081.72;;;32.52;44.40
74230;BME280;62589;12.568;99.958;2022-10-16T03:24:07;101077.78;;;32.53;44.52
74230;BME280;62589;12.568;99.958;2022-10-16T03:26:33;101073.81;;;32.54;44.48
74230;BME280;62589;12.568;99.958;2022-10-16T03:29:00;101072.63;;;32.55;44.66
74230;BME280;62589;12.568;99.958;2022-10-16T03:31:29;101072.63;;;32.55;44.53
74230;BME280;62589;12.568;99.958;2022-10-16T03:33:55;101069.91;;;32.58;44.82
74230;BME280;62589;12.568;99.958;2022-10-16T03:36:22;101069.94;;;32.62;44.85
74230;BME280;62589;12.568;99.958;2022-10-16T03:38:49;101065.63;;;32.68;45.55
74230;BME280;62589;12.568;99.958;2022-10-16T03:41:16;101068.06;;;32.73;45.55
74230;BME280;62589;12.568;99.958;2022-10-16T03:43:43;101066.16;;;32.77;45.36
74230;BME280;62589;12.568;99.958;2022-10-16T03:46:09;101070.22;;;32.83;45.03
74230;BME280;62589;12.568;99.958;2022-10-16T03:48:36;101066.59;;;32.79;45.30
74230;BME280;62589;12.568;99.958;2022-10-16T03:51:03;101073.81;;;32.84;44.63
74230;BME280;62589;12.568;99.958;2022-10-16T03:53:29;101065.47;;;32.87;44.52
74230;BME280;62589;12.568;99.958;2022-10-16T03:55:56;101071.41;;;32.86;44.18
74230;BME280;62589;12.568;99.958;2022-10-16T03:58:23;101064.25;;;32.85;44.16
74230;BME280;62589;12.568;99.958;2022-10-16T04:00:50;101059.50;;;32.85;44.09
74230;BME280;62589;12.568;99.958;2022-10-16T04:03:17;101063.06;;;32.86;44.20
74230;BME280;62589;12.568;99.958;2022-10-16T04:05:45;101055.53;;;32.86;44.50
74230;BME280;62589;12.568;99.958;2022-10-16T04:08:11;101051.94;;;32.86;44.28
74230;BME280;62589;12.568;99.958;2022-10-16T04:10:38;101049.63;;;32.91;44.59
74230;BME280;62589;12.568;99.958;2022-10-16T04:13:05;101039.25;;;32.88;44.69
74230;BME280;62589;12.568;99.958;2022-10-16T04:15:31;101040.53;;;32.94;45.13
74230;BME280;62589;12.568;99.958;2022-10-16T04:17:58;101034.63;;;32.99;45.51
74230;BME280;62589;12.568;99.958;2022-10-16T04:20:25;101034.22;;;33.01;45.23
74230;BME280;62589;12.568;99.958;2022-10-16T04:22:52;101032.66;;;33.03;45.28
74230;BME280;62589;12.568;99.958;2022-10-16T04:25:18;101028.28;;;33.06;45.47
74230;BME280;62589;12.568;99.958;2022-10-16T04:27:45;101025.56;;;33.09;45.09
74230;BME280;62589;12.568;99.958;2022-10-16T04:30:12;101018.84;;;33.14;45.81
74230;BME280;62589;12.568;99.958;2022-10-16T04:32:39;101025.25;;;33.18;45.67
74230;BME280;62589;12.568;99.958;2022-10-16T04:35:06;101007.41;;;33.23;45.94
74230;BME280;62589;12.568;99.958;2022-10-16T04:37:33;101005.03;;;33.25;45.64
74230;BME280;62589;12.568;99.958;2022-10-16T04:39:59;101011.78;;;33.24;45.27
74230;BME280;62589;12.568;99.958;2022-10-16T04:42:26;101005.06;;;33.28;45.20
74230;BME280;62589;12.568;99.958;2022-10-16T04:44:56;101005.47;;;33.30;45.00
74230;BME280;62589;12.568;99.958;2022-10-16T04:47:22;101011.47;;;33.32;44.87
74230;BME280;62589;12.568;99.958;2022-10-16T04:49:49;101003.91;;;33.33;44.95
74230;BME280;62589;12.568;99.958;2022-10-16T04:52:16;101004.69;;;33.30;44.56
74230;BME280;62589;12.568;99.958;2022-10-16T04:54:43;101002.31;;;33.32;44.52
74230;BME280;62589;12.568;99.958;2022-10-16T04:57:11;100996.34;;;33.30;44.02
74230;BME280;62589;12.568;99.958;2022-10-16T04:59:38;100999.53;;;33.32;43.94
74230;BME280;62589;12.568;99.958;2022-10-16T05:02:04;100993.59;;;33.33;43.81
74230;BME280;62589;12.568;99.958;2022-10-16T05:04:31;100986.88;;;33.38;44.51
74230;BME280;62589;12.568;99.958;2022-10-16T05:06:58;100977.34;;;33.42;44.44
74230;BME280;62589;12.568;99.958;2022-10-16T05:09:25;100973.78;;;33.42;44.04
74230;BME280;62589;12.568;99.958;2022-10-16T05:11:52;100975.38;;;33.43;43.84
74230;BME280;62589;12.568;99.958;2022-10-16T05:14:19;100965.44;;;33.42;43.56
74230;BME280;62589;12.568;99.958;2022-10-16T05:16:45;100970.19;;;33.41;44.07
74230;BME280;62589;12.568;99.958;2022-10-16T05:19:14;100960.22;;;33.37;43.59
74230;BME280;62589;12.568;99.958;2022-10-16T05:21:40;100966.19;;;33.39;44.13
74230;BME280;62589;12.568;99.958;2022-10-16T05:24:07;100969.38;;;33.37;43.95
74230;BME280;62589;12.568;99.958;2022-10-16T05:26:35;100961.41;;;33.36;43.72
74230;BME280;62589;12.568;99.958;2022-10-16T05:29:02;100955.03;;;33.35;43.92
74230;BME280;62589;12.568;99.958;2022-10-16T05:31:29;100957.81;;;33.35;44.51
74230;BME280;62589;12.568;99.958;2022-10-16T05:34:02;100954.63;;;33.33;44.84
74230;BME280;62589;12.568;99.958;2022-10-16T05:36:29;100946.66;;;33.32;44.39
74230;BME280;62589;12.568;99.958;2022-10-16T05:38:55;100935.50;;;33.28;44.33
74230;BME280;62589;12.568;99.958;2022-10-16T05:41:22;100938.66;;;33.27;44.61
74230;BME280;62589;12.568;99.958;2022-10-16T05:43:52;100932.28;;;33.23;44.40
74230;BME280;62589;12.568;99.958;2022-10-16T05:46:19;100925.09;;;33.22;44.97
74230;BME280;62589;12.568;99.958;2022-10-16T05:48:46;100924.31;;;33.21;44.31
74230;BME280;62589;12.568;99.958;2022-10-16T05:51:14;100918.34;;;33.23;44.76
74230;BME280;62589;12.568;99.958;2022-10-16T05:53:41;100916.00;;;33.25;44.61
74230;BME280;62589;12.568;99.958;2022-10-16T05:56:10;100906.44;;;33.26;44.18
74230;BME280;62589;12.568;99.958;2022-10-16T05:58:39;100903.66;;;33.26;44.67
74230;BME280;62589;12.568;99.958;2022-10-16T06:01:16;100908.47;;;33.29;44.70
74230;BME280;62589;12.568;99.958;2022-10-16T06:03:43;100906.09;;;33.31;44.43
74230;BME280;62589;12.568;99.958;2022-10-16T06:06:22;100904.50;;;33.30;44.49
74230;BME280;62589;12.568;99.958;2022-10-16T06:08:49;100885.06;;;33.37;44.86
74230;BME280;62589;12.568;99.958;2022-10-16T06:11:18;100882.31;;;33.40;44.56
74230;BME280;62589;12.568;99.958;2022-10-16T06:13:48;100882.72;;;33.42;44.51
74230;BME280;62589;12.568;99.958;2022-10-16T06:16:15;100886.28;;;33.39;44.68
74230;BME280;62589;12.568;99.958;2022-10-16T06:18:42;100878.38;;;33.45;44.19
74230;BME280;62589;12.568;99.958;2022-10-16T06:21:16;100872.00;;;33.48;44.99
74230;BME280;62589;12.568;99.958;2022-10-16T06:23:43;100867.66;;;33.54;44.65
74230;BME280;62589;12.568;99.958;2022-10-16T06:26:15;100867.25;;;33.52;44.73
74230;BME280;62589;12.568;99.958;2022-10-16T06:28:42;100857.72;;;33.57;44.38
74230;BME280;62589;12.568;99.958;2022-10-16T06:31:10;100851.00;;;33.61;44.21
74230;BME280;62589;12.568;99.958;2022-10-16T06:33:38;100845.84;;;33.63;43.95
74230;BME280;62589;12.568;99.958;2022-10-16T06:36:13;100839.84;;;33.61;43.58
74230;BME280;62589;12.568;99.958;2022-10-16T06:38:41;100843.44;;;33.62;43.42
74230;BME280;62589;12.568;99.958;2022-10-16T06:41:13;100837.84;;;33.58;43.95
74230;BME280;62589;12.568;99.958;2022-10-16T06:43:41;100839.06;;;33.61;43.70
74230;BME280;62589;12.568;99.958;2022-10-16T06:46:10;100839.44;;;33.59;44.46
74230;BME280;62589;12.568;99.958;2022-10-16T06:48:38;100831.88;;;33.56;44.10
74230;BME280;62589;12.568;99.958;2022-10-16T06:51:10;100838.22;;;33.53;43.77
74230;BME280;62589;12.568;99.958;2022-10-16T06:53:40;100831.03;;;33.49;43.60
74230;BME280;62589;12.568;99.958;2022-10-16T06:56:13;100832.22;;;33.44;44.59
74230;BME280;62589;12.568;99.958;2022-10-16T06:58:41;100828.25;;;33.45;43.68
74230;BME280;62589;12.568;99.958;2022-10-16T07:01:08;100832.22;;;33.44;44.76
74230;BME280;62589;12.568;99.958;2022-10-16T07:03:40;100821.88;;;33.41;44.53
74230;BME280;62589;12.568;99.958;2022-10-16T07:06:10;100820.28;;;33.40;44.75
74230;BME280;62589;12.568;99.958;2022-10-16T07:08:39;100825.03;;;33.36;44.41
74230;BME280;62589;12.568;99.958;2022-10-16T07:11:08;100828.19;;;33.34;44.71
74230;BME280;62589;12.568;99.958;2022-10-16T07:13:36;100827.41;;;33.34;44.47
74230;BME280;62589;12.568;99.958;2022-10-16T07:16:17;100836.53;;;33.31;45.79
74230;BME280;62589;12.568;99.958;2022-10-16T07:18:44;100834.13;;;33.29;45.05
74230;BME280;62589;12.568;99.958;2022-10-16T07:21:17;100827.72;;;33.22;45.27
74230;BME280;62589;12.568;99.958;2022-10-16T07:23:45;100817.78;;;33.21;44.32
74230;BME280;62589;12.568;99.958;2022-10-16T07:26:11;100824.91;;;33.18;44.60
74230;BME280;62589;12.568;99.958;2022-10-16T07:28:38;100826.09;;;33.17;44.70
74230;BME280;62589;12.568;99.958;2022-10-16T07:31:09;100825.69;;;33.15;44.55
74230;BME280;62589;12.568;99.958;2022-10-16T07:33:37;100822.91;;;33.15;45.09
74230;BME280;62589;12.568;99.958;2022-10-16T07:36:05;100821.69;;;33.12;45.22
74230;BME280;62589;12.568;99.958;2022-10-16T07:38:32;100815.34;;;33.12;45.18
74230;BME280;62589;12.568;99.958;2022-10-16T07:41:00;100814.50;;;33.08;45.48
74230;BME280;62589;12.568;99.958;2022-10-16T07:43:27;100815.31;;;33.08;45.44
74230;BME280;62589;12.568;99.958;2022-10-16T07:45:53;100816.06;;;33.05;45.16
74230;BME280;62589;12.568;99.958;2022-10-16T07:48:21;100811.31;;;33.02;44.87
74230;BME280;62589;12.568;99.958;2022-10-16T07:50:48;100808.91;;;33.01;45.99
74230;BME280;62589;12.568;99.958;2022-10-16T07:53:15;100810.53;;;33.02;46.05
74230;BME280;62589;12.568;99.958;2022-10-16T07:55:41;100801.72;;;32.96;45.63
74230;BME280;62589;12.568;99.958;2022-10-16T07:58:08;100812.03;;;32.92;45.57
74230;BME280;62589;12.568;99.958;2022-10-16T08:00:36;100802.47;;;32.90;45.44
74230;BME280;62589;12.568;99.958;2022-10-16T08:03:02;100806.03;;;32.87;45.12
74230;BME280;62589;12.568;99.958;2022-10-16T08:05:31;100806.84;;;32.84;45.81
74230;BME280;62589;12.568;99.958;2022-10-16T08:07:59;100810.00;;;32.82;46.11
74230;BME280;62589;12.568;99.958;2022-10-16T08:10:26;100813.53;;;32.79;46.47
74230;BME280;62589;12.568;99.958;2022-10-16T08:12:53;100803.59;;;32.78;46.55
74230;BME280;62589;12.568;99.958;2022-10-16T08:15:20;100804.00;;;32.76;47.14
74230;BME280;62589;12.568;99.958;2022-10-16T08:18:01;100801.22;;;32.76;46.48
74230;BME280;62589;12.568;99.958;2022-10-16T08:20:29;100807.53;;;32.73;46.28
74230;BME280;62589;12.568;99.958;2022-10-16T08:22:56;100805.91;;;32.72;46.41
74230;BME280;62589;12.568;99.958;2022-10-16T08:25:23;100813.47;;;32.72;47.05
74230;BME280;62589;12.568;99.958;2022-10-16T08:27:50;100801.53;;;32.71;47.21
74230;BME280;62589;12.568;99.958;2022-10-16T08:30:18;100791.59;;;32.70;47.34
74230;BME280;62589;12.568;99.958;2022-10-16T08:32:45;100797.53;;;32.69;47.50
74230;BME280;62589;12.568;99.958;2022-10-16T08:35:12;100792.78;;;32.69;47.91
74230;BME280;62589;12.568;99.958;2022-10-16T08:37:40;100791.56;;;32.67;47.30
74230;BME280;62589;12.568;99.958;2022-10-16T08:40:19;100797.50;;;32.65;47.98
74230;BME280;62589;12.568;99.958;2022-10-16T08:48:53;100799.50;;;32.65;47.33
74230;BME280;62589;12.568;99.958;2022-10-16T08:51:24;100802.63;;;32.56;46.87
74230;BME280;62589;12.568;99.958;2022-10-16T08:53:57;100801.75;;;32.49;46.33
74230;BME280;62589;12.568;99.958;2022-10-16T08:56:25;100808.09;;;32.45;47.03
74230;BME280;62589;12.568;99.958;2022-10-16T08:58:53;100805.31;;;32.42;47.46
74230;BME280;62589;12.568;99.958;2022-10-16T09:01:35;100808.84;;;32.39;47.02
74230;BME280;62589;12.568;99.958;2022-10-16T09:07:20;100810.03;;;32.38;47.14
74230;BME280;62589;12.568;99.958;2022-10-16T09:13:02;100813.19;;;32.36;47.72
74230;BME280;62589;12.568;99.958;2022-10-16T09:15:49;100813.19;;;32.36;47.87
74230;BME280;62589;12.568;99.958;2022-10-16T09:18:34;100813.19;;;32.36;48.16
74230;BME280;62589;12.568;99.958;2022-10-16T09:21:24;100799.72;;;32.38;47.43
74230;BME280;62589;12.568;99.958;2022-10-16T09:23:51;100808.38;;;32.33;47.33
74230;BME280;62589;12.568;99.958;2022-10-16T09:26:18;100807.97;;;32.31;47.17
74230;BME280;62589;12.568;99.958;2022-10-16T09:28:47;100808.78;;;32.32;47.98
74230;BME280;62589;12.568;99.958;2022-10-16T09:31:18;100810.75;;;32.31;48.26
74230;BME280;62589;12.568;99.958;2022-10-16T09:33:52;100811.13;;;32.30;48.87
74230;BME280;62589;12.568;99.958;2022-10-16T09:36:20;100805.59;;;32.33;48.64
74230;BME280;62589;12.568;99.958;2022-10-16T09:38:48;100812.34;;;32.32;49.50
74230;BME280;62589;12.568;99.958;2022-10-16T09:41:18;100814.75;;;32.34;49.08
74230;BME280;62589;12.568;99.958;2022-10-16T09:43:52;100815.13;;;32.32;49.01
74230;BME280;62589;12.568;99.958;2022-10-16T09:46:35;100829.03;;;32.32;48.91
74230;BME280;62589;12.568;99.958;2022-10-16T09:49:05;100827.41;;;32.31;48.39
74230;BME280;62589;12.568;99.958;2022-10-16T09:51:44;100833.34;;;32.30;48.75
74230;BME280;62589;12.568;99.958;2022-10-16T09:54:19;100838.13;;;32.29;49.30
74230;BME280;62589;12.568;99.958;2022-10-16T09:56:47;100830.97;;;32.28;49.46
74230;BME280;62589;12.568;99.958;2022-10-16T09:59:22;100831.34;;;32.27;49.00
74230;BME280;62589;12.568;99.958;2022-10-16T10:01:54;100838.50;;;32.28;48.87
74230;BME280;62589;12.568;99.958;2022-10-16T10:04:23;100842.41;;;32.23;48.88
74230;BME280;62589;12.568;99.958;2022-10-16T10:06:53;100837.66;;;32.24;48.89
74230;BME280;62589;12.568;99.958;2022-10-16T10:12:04;100856.69;;;32.22;48.51
74230;BME280;62589;12.568;99.958;2022-10-16T10:14:39;100843.22;;;32.20;48.76
74230;BME280;62589;12.568;99.958;2022-10-16T10:17:20;100840.44;;;32.20;48.63
74230;BME280;62589;12.568;99.958;2022-10-16T10:19:55;100842.75;;;32.18;48.28
74230;BME280;62589;12.568;99.958;2022-10-16T10:25:25;100845.53;;;32.18;48.40
74230;BME280;62589;12.568;99.958;2022-10-16T10:28:17;100855.84;;;32.18;47.82
74230;BME280;62589;12.568;99.958;2022-10-16T10:34:14;100861.78;;;32.16;48.09
74230;BME280;62589;12.568;99.958;2022-10-16T10:36:52;100865.28;;;32.09;48.39
74230;BME280;62589;12.568;99.958;2022-10-16T10:39:35;100863.69;;;32.08;48.09
74230;BME280;62589;12.568;99.958;2022-10-16T10:42:08;100874.13;;;32.19;47.80
74230;BME280;62589;12.568;99.958;2022-10-16T10:45:03;100883.13;;;32.08;47.95
74230;BME280;62589;12.568;99.958;2022-10-16T10:50:56;100882.28;;;32.04;47.94
74230;BME280;62589;12.568;99.958;2022-10-16T11:02:17;100885.69;;;31.91;48.53
74230;BME280;62589;12.568;99.958;2022-10-16T11:07:39;100892.75;;;31.85;48.97
74230;BME280;62589;12.568;99.958;2022-10-16T11:10:17;100893.50;;;31.82;49.77
74230;BME280;62589;12.568;99.958;2022-10-16T11:12:49;100901.84;;;31.82;49.53
74230;BME280;62589;12.568;99.958;2022-10-16T11:15:28;100895.09;;;31.83;48.72
74230;BME280;62589;12.568;99.958;2022-10-16T11:18:07;100903.00;;;31.81;49.61
74230;BME280;62589;12.568;99.958;2022-10-16T11:20:40;100908.16;;;31.79;49.06
74230;BME280;62589;12.568;99.958;2022-10-16T11:23:16;100897.38;;;31.73;48.81
74230;BME280;62589;12.568;99.958;2022-10-16T11:25:45;100906.94;;;31.76;48.32
74230;BME280;62589;12.568;99.958;2022-10-16T11:28:33;100907.75;;;31.76;48.85
74230;BME280;62589;12.568;99.958;2022-10-16T11:31:14;100915.66;;;31.74;49.46
74230;BME280;62589;12.568;99.958;2022-10-16T11:36:42;100913.19;;;31.69;48.60
74230;BME280;62589;12.568;99.958;2022-10-16T11:39:19;100930.59;;;31.66;48.56
74230;BME280;62589;12.568;99.958;2022-10-16T11:47:31;100947.53;;;31.61;48.79
74230;BME280;62589;12.568;99.958;2022-10-16T11:50:20;100954.63;;;31.55;48.54
74230;BME280;62589;12.568;99.958;2022-10-16T11:55:46;100963.31;;;31.54;47.63
74230;BME280;62589;12.568;99.958;2022-10-16T11:58:35;100974.03;;;31.55;48.82
74230;BME280;62589;12.568;99.958;2022-10-16T12:07:05;100989.34;;;31.46;48.64
74230;BME280;62589;12.568;99.958;2022-10-16T12:09:38;100991.31;;;31.45;48.34
74230;BME280;62589;12.568;99.958;2022-10-16T12:12:23;100998.03;;;31.44;48.50
74230;BME280;62589;12.568;99.958;2022-10-16T12:15:18;101006.38;;;31.44;49.20
74230;BME280;62589;12.568;99.958;2022-10-16T12:17:45;101009.09;;;31.40;48.57
74230;BME280;62589;12.568;99.958;2022-10-16T12:20:31;101005.09;;;31.38;49.36
74230;BME280;62589;12.568;99.958;2022-10-16T12:23:00;101003.91;;;31.39;49.18
74230;BME280;62589;12.568;99.958;2022-10-16T12:25:36;101007.88;;;31.38;48.90
74230;BME280;62589;12.568;99.958;2022-10-16T12:28:21;101007.09;;;31.37;49.30
74230;BME280;62589;12.568;99.958;2022-10-16T12:31:01;101009.06;;;31.37;49.04
74230;BME280;62589;12.568;99.958;2022-10-16T12:33:35;101011.03;;;31.36;48.86
74230;BME280;62589;12.568;99.958;2022-10-16T12:36:09;101021.31;;;31.36;48.80
74230;BME280;62589;12.568;99.958;2022-10-16T12:38:52;101026.50;;;31.37;48.69
74230;BME280;62589;12.568;99.958;2022-10-16T12:41:28;101028.84;;;31.35;48.56
74230;BME280;62589;12.568;99.958;2022-10-16T12:43:56;101030.00;;;31.34;47.96
74230;BME280;62589;12.568;99.958;2022-10-16T12:46:43;101027.69;;;31.36;48.49
74230;BME280;62589;12.568;99.958;2022-10-16T12:49:36;101035.19;;;31.36;48.75
74230;BME280;62589;12.568;99.958;2022-10-16T12:52:03;101033.16;;;31.33;49.11
74230;BME280;62589;12.568;99.958;2022-10-16T12:54:38;101039.44;;;31.30;49.16
74230;BME280;62589;12.568;99.958;2022-10-16T12:57:26;101048.13;;;31.28;49.13
74230;BME280;62589;12.568;99.958;2022-10-16T13:12:11;101075.88;;;31.28;49.59
74230;BME280;62589;12.568;99.958;2022-10-16T13:15:13;101082.66;;;31.31;48.88
74230;BME280;62589;12.568;99.958;2022-10-16T13:26:49;101096.47;;;31.27;49.60
74230;BME280;62589;12.568;99.958;2022-10-16T13:29:20;101093.19;;;31.22;49.38
74230;BME280;62589;12.568;99.958;2022-10-16T13:31:47;101095.97;;;31.22;49.13
74230;BME280;62589;12.568;99.958;2022-10-16T13:34:18;101103.81;;;31.16;48.52
74230;BME280;62589;12.568;99.958;2022-10-16T13:36:51;101096.28;;;31.17;48.75
74230;BME280;62589;12.568;99.958;2022-10-16T13:39:29;101096.69;;;31.19;49.02
74230;BME280;62589;12.568;99.958;2022-10-16T13:44:48;101101.84;;;31.17;49.49
74230;BME280;62589;12.568;99.958;2022-10-16T13:47:21;101102.25;;;31.19;49.47
74230;BME280;62589;12.568;99.958;2022-10-16T13:50:09;101102.69;;;31.21;49.44
74230;BME280;62589;12.568;99.958;2022-10-16T13:52:37;101109.78;;;31.18;49.96
74230;BME280;62589;12.568;99.958;2022-10-16T13:55:15;101101.03;;;31.16;49.85
74230;BME280;62589;12.568;99.958;2022-10-16T13:57:43;101112.50;;;31.15;49.42
74230;BME280;62589;12.568;99.958;2022-10-16T14:00:23;101114.84;;;31.13;49.96
74230;BME280;62589;12.568;99.958;2022-10-16T14:02:59;101122.34;;;31.12;50.21
74230;BME280;62589;12.568;99.958;2022-10-16T14:05:27;101126.38;;;31.15;49.93
74230;BME280;62589;12.568;99.958;2022-10-16T14:07:54;101124.34;;;31.12;50.69
74230;BME280;62589;12.568;99.958;2022-10-16T14:10:30;101121.19;;;31.13;51.17
74230;BME280;62589;12.568;99.958;2022-10-16T14:13:05;101121.56;;;31.12;51.18
74230;BME280;62589;12.568;99.958;2022-10-16T14:15:34;101123.16;;;31.13;51.12
74230;BME280;62589;12.568;99.958;2022-10-16T14:18:02;101125.94;;;31.13;50.63
74230;BME280;62589;12.568;99.958;2022-10-16T14:20:33;101127.53;;;31.14;49.86
74230;BME280;62589;12.568;99.958;2022-10-16T14:25:41;101123.97;;;31.13;50.77
74230;BME280;62589;12.568;99.958;2022-10-16T14:28:27;101125.19;;;31.16;50.25
74230;BME280;62589;12.568;99.958;2022-10-16T14:31:01;101123.97;;;31.13;50.46
74230;BME280;62589;12.568;99.958;2022-10-16T14:33:33;101122.69;;;31.10;50.34
74230;BME280;62589;12.568;99.958;2022-10-16T14:36:06;101131.91;;;31.15;49.99
74230;BME280;62589;12.568;99.958;2022-10-16T14:38:48;101131.00;;;31.10;51.25
74230;BME280;62589;12.568;99.958;2022-10-16T14:41:23;101138.19;;;31.12;51.01